createdAt,value
2019-04-14T00:00:46.858Z,4.10
2019-04-14T00:02:55.248Z,4.00
2019-04-14T00:04:59.423Z,3.90
2019-04-14T00:07:01.590Z,3.90
2019-04-14T00:09:07.528Z,3.90
2019-04-14T00:11:10.363Z,3.80
2019-04-14T00:13:13.188Z,3.80
2019-04-14T00:15:27.158Z,3.80
2019-04-14T00:17:19.484Z,3.90
2019-04-14T00:19:21.732Z,3.80
2019-04-14T00:21:23.696Z,3.90
2019-04-14T00:23:26.130Z,3.80
2019-04-14T00:25:28.327Z,3.80
2019-04-14T00:27:30.302Z,3.70
2019-04-14T00:29:32.760Z,3.70
2019-04-14T00:31:34.961Z,3.60
2019-04-14T00:33:36.841Z,3.70
2019-04-14T00:36:04.500Z,3.70
2019-04-14T00:38:17.200Z,3.70
2019-04-14T00:40:29.281Z,3.70
2019-04-14T00:42:45.212Z,3.60
2019-04-14T00:44:51.734Z,3.70
2019-04-14T00:47:00.621Z,3.70
2019-04-14T00:49:02.866Z,3.70
2019-04-14T00:51:04.910Z,3.80
2019-04-14T00:53:07.707Z,3.70
2019-04-14T00:55:09.800Z,3.70
2019-04-14T00:57:11.609Z,3.80
2019-04-14T00:59:13.682Z,3.80
2019-04-14T01:01:15.555Z,3.80
2019-04-14T01:03:17.760Z,3.70
2019-04-14T01:05:19.802Z,3.60
2019-04-14T01:07:21.665Z,3.60
2019-04-14T01:09:24.001Z,3.70
2019-04-14T01:11:27.012Z,3.70
2019-04-14T01:13:29.100Z,3.60
2019-04-14T01:15:34.973Z,3.60
2019-04-14T01:17:35.239Z,3.50
2019-04-14T01:19:37.382Z,3.50
2019-04-14T01:21:39.260Z,3.40
2019-04-14T01:23:41.226Z,3.40
2019-04-14T01:25:43.300Z,3.40
2019-04-14T01:27:45.158Z,3.40
2019-04-14T01:29:47.358Z,3.40
2019-04-14T01:31:49.400Z,3.40
2019-04-14T01:33:51.223Z,3.40
2019-04-14T01:35:53.177Z,3.30
2019-04-14T01:37:55.102Z,3.30
2019-04-14T01:39:56.912Z,3.30
2019-04-14T01:41:58.641Z,3.30
2019-04-14T01:44:00.395Z,3.20
2019-04-14T01:46:13.784Z,3.30
2019-04-14T01:48:06.265Z,3.20
2019-04-14T01:50:08.589Z,3.20
2019-04-14T01:52:42.121Z,3.00
2019-04-14T01:54:56.097Z,3.10
2019-04-14T01:57:17.656Z,3.10
2019-04-14T01:59:19.844Z,3.10
2019-04-14T02:01:28.172Z,3.00
2019-04-14T02:03:30.580Z,3.00
2019-04-14T02:05:34.210Z,3.10
2019-04-14T02:07:36.187Z,3.10
2019-04-14T02:09:38.070Z,3.00
2019-04-14T02:11:40.138Z,3.00
2019-04-14T02:13:42.166Z,3.00
2019-04-14T02:15:44.260Z,2.90
2019-04-14T02:17:46.262Z,2.90
2019-04-14T02:19:48.312Z,3.00
2019-04-14T02:21:50.247Z,3.00
2019-04-14T02:23:52.066Z,3.00
2019-04-14T02:25:53.798Z,2.90
2019-04-14T02:27:55.841Z,2.90
2019-04-14T02:29:58.303Z,3.00
2019-04-14T02:32:33.692Z,3.00
2019-04-14T02:34:34.173Z,3.00
2019-04-14T02:38:49.331Z,2.90
2019-04-14T02:40:49.325Z,2.90
2019-04-14T02:46:53.051Z,2.90
2019-04-14T02:48:58.435Z,2.90
2019-04-14T02:51:09.959Z,2.90
2019-04-14T02:53:07.749Z,2.90
2019-04-14T02:55:04.235Z,3.00
2019-04-14T02:57:20.790Z,2.90
2019-04-14T02:59:13.189Z,3.00
2019-04-14T03:01:19.689Z,2.90
2019-04-14T03:05:27.057Z,2.80
2019-04-14T03:07:45.788Z,2.80
2019-04-14T03:11:41.586Z,2.80
2019-04-14T03:13:47.163Z,2.90
2019-04-14T03:15:48.488Z,2.90
2019-04-14T03:22:56.172Z,2.90
2019-04-14T03:25:00.556Z,3.00
2019-04-14T03:27:31.243Z,3.00
2019-04-14T03:29:39.257Z,3.00
2019-04-14T03:34:11.179Z,3.20
2019-04-14T03:41:56.740Z,3.40
2019-04-14T03:43:57.724Z,3.50
2019-04-14T03:46:14.875Z,3.60
2019-04-14T03:48:39.993Z,3.60
2019-04-14T03:50:06.161Z,3.60
2019-04-14T03:52:13.056Z,3.60
2019-04-14T03:54:09.734Z,3.50
2019-04-14T03:56:33.486Z,3.50
2019-04-14T03:58:35.722Z,3.50
2019-04-14T04:00:37.795Z,3.50
2019-04-14T04:02:40.181Z,3.50
2019-04-14T04:04:42.375Z,3.40
2019-04-14T04:06:44.383Z,3.40
2019-04-14T04:08:46.501Z,3.50
2019-04-14T04:10:48.722Z,3.50
2019-04-14T04:12:51.116Z,3.50
2019-04-14T04:14:53.164Z,3.50
2019-04-14T04:17:27.607Z,3.50
2019-04-14T04:19:49.241Z,3.50
2019-04-14T04:22:12.897Z,3.50
2019-04-14T04:24:33.486Z,3.50
2019-04-14T04:26:42.955Z,3.50
2019-04-14T04:29:04.892Z,3.50
2019-04-14T04:31:13.427Z,3.50
2019-04-14T04:33:20.569Z,3.50
2019-04-14T04:35:34.719Z,3.50
2019-04-14T04:38:03.010Z,3.50
2019-04-14T04:40:18.677Z,3.50
2019-04-14T04:42:20.373Z,3.50
2019-04-14T04:44:22.476Z,3.60
2019-04-14T04:46:24.720Z,3.60
2019-04-14T04:48:26.502Z,3.60
2019-04-14T04:50:28.351Z,3.50
2019-04-14T04:52:30.116Z,3.60
2019-04-14T04:54:32.114Z,3.60
2019-04-14T04:56:34.126Z,3.70
2019-04-14T04:58:37.067Z,3.70
2019-04-14T05:00:39.492Z,3.70
2019-04-14T05:02:41.899Z,3.70
2019-04-14T05:04:43.883Z,3.70
2019-04-14T05:06:57.143Z,3.70
2019-04-14T05:09:05.875Z,3.80
2019-04-14T05:11:25.623Z,3.90
2019-04-14T05:13:33.469Z,3.80
2019-04-14T05:15:40.457Z,3.80
2019-04-14T05:17:43.078Z,3.90
2019-04-14T05:19:45.469Z,3.90
2019-04-14T05:21:47.475Z,3.90
2019-04-14T05:23:49.519Z,3.90
2019-04-14T05:25:51.817Z,3.90
2019-04-14T05:27:53.851Z,3.90
2019-04-14T05:29:55.910Z,4.00
2019-04-14T05:31:57.711Z,4.00
2019-04-14T05:33:59.952Z,4.00
2019-04-14T05:36:02.172Z,4.00
2019-04-14T05:38:04.153Z,4.10
2019-04-14T05:40:06.343Z,4.20
2019-04-14T05:42:14.048Z,4.20
2019-04-14T05:44:12.139Z,4.20
2019-04-14T05:46:14.195Z,4.40
2019-04-14T05:48:16.254Z,4.40
2019-04-14T05:50:18.199Z,4.40
2019-04-14T05:52:20.630Z,4.50
2019-04-14T05:54:23.121Z,4.50
2019-04-14T05:56:25.253Z,4.60
2019-04-14T05:58:27.533Z,4.50
2019-04-14T06:00:29.999Z,4.60
2019-04-14T06:02:32.155Z,4.70
2019-04-14T06:04:35.281Z,4.70
2019-04-14T06:06:37.257Z,4.70
2019-04-14T06:08:39.089Z,4.80
2019-04-14T06:10:40.806Z,4.80
2019-04-14T06:12:42.651Z,4.90
2019-04-14T06:14:44.640Z,4.80
2019-04-14T06:16:46.397Z,4.80
2019-04-14T06:18:48.221Z,4.80
2019-04-14T06:20:49.978Z,4.80
2019-04-14T06:22:51.718Z,4.90
2019-04-14T06:24:53.597Z,5.00
2019-04-14T06:26:55.338Z,5.00
2019-04-14T06:28:57.081Z,5.10
2019-04-14T06:31:18.264Z,5.10
2019-04-14T06:33:45.487Z,5.10
2019-04-14T06:36:05.362Z,5.10
2019-04-14T06:38:10.538Z,5.10
2019-04-14T06:40:12.326Z,5.20
2019-04-14T06:42:14.383Z,5.20
2019-04-14T06:44:16.372Z,5.30
2019-04-14T06:46:18.186Z,5.30
2019-04-14T06:48:19.997Z,5.40
2019-04-14T06:50:21.785Z,5.50
2019-04-14T06:52:23.502Z,5.60
2019-04-14T06:54:25.434Z,5.60
2019-04-14T06:56:27.261Z,5.60
2019-04-14T06:58:29.110Z,5.60
2019-04-14T07:00:31.084Z,5.70
2019-04-14T07:02:32.970Z,5.80
2019-04-14T07:04:34.694Z,5.70
2019-04-14T07:06:36.553Z,5.80
2019-04-14T07:08:38.434Z,5.90
2019-04-14T07:10:40.253Z,5.90
2019-04-14T07:12:43.216Z,6.00
2019-04-14T07:14:45.411Z,6.00
2019-04-14T07:16:47.504Z,5.90
2019-04-14T07:18:49.300Z,5.90
2019-04-14T07:20:51.126Z,5.90
2019-04-14T07:22:52.876Z,6.00
2019-04-14T07:24:54.810Z,6.00
2019-04-14T07:26:56.530Z,6.00
2019-04-14T07:28:58.247Z,6.20
2019-04-14T07:31:11.642Z,6.20
2019-04-14T07:33:33.061Z,6.40
2019-04-14T07:35:54.566Z,6.40
2019-04-14T07:38:04.609Z,6.50
2019-04-14T07:40:21.057Z,6.60
2019-04-14T07:42:45.034Z,6.90
2019-04-14T07:45:21.623Z,6.80
2019-04-14T07:47:27.437Z,6.70
2019-04-14T07:49:47.381Z,6.80
2019-04-14T07:52:21.750Z,6.90
2019-04-14T07:54:43.222Z,7.00
2019-04-14T07:57:10.694Z,7.10
2019-04-14T07:59:17.988Z,7.10
2019-04-14T08:01:26.467Z,7.00
2019-04-14T08:04:03.141Z,7.00
2019-04-14T08:06:04.905Z,7.20
2019-04-14T08:08:06.772Z,7.10
2019-04-14T08:10:08.573Z,7.00
2019-04-14T08:12:10.424Z,7.00
2019-04-14T08:14:12.260Z,7.10
2019-04-14T08:16:14.114Z,7.10
2019-04-14T08:18:15.821Z,7.10
2019-04-14T08:20:27.410Z,7.30
2019-04-14T08:22:21.253Z,7.30
2019-04-14T08:24:22.993Z,7.20
2019-04-14T08:26:24.729Z,7.20
2019-04-14T08:28:26.649Z,7.20
2019-04-14T08:30:28.670Z,7.10
2019-04-14T08:32:30.401Z,7.10
2019-04-14T08:34:32.229Z,7.10
2019-04-14T08:36:33.942Z,7.20
2019-04-14T08:38:35.664Z,7.30
2019-04-14T08:40:37.531Z,7.20
2019-04-14T08:43:01.805Z,7.10
2019-04-14T08:45:12.950Z,7.20
2019-04-14T08:47:29.394Z,7.30
2019-04-14T08:49:36.437Z,7.40
2019-04-14T08:51:57.829Z,7.50
2019-04-14T08:54:05.364Z,7.50
2019-04-14T08:56:13.558Z,7.60
2019-04-14T08:58:33.628Z,7.50
2019-04-14T09:00:45.941Z,7.50
2019-04-14T09:03:12.233Z,7.30
2019-04-14T09:05:26.005Z,7.40
2019-04-14T09:07:31.849Z,7.40
2019-04-14T09:09:37.597Z,7.40
2019-04-14T09:11:44.677Z,7.30
2019-04-14T09:13:46.401Z,7.30
2019-04-14T09:15:48.123Z,7.20
2019-04-14T09:17:49.841Z,7.20
2019-04-14T09:19:51.565Z,7.10
2019-04-14T09:21:53.425Z,7.10
2019-04-14T09:23:56.916Z,7.20
2019-04-14T09:25:58.909Z,7.10
2019-04-14T09:28:00.619Z,7.10
2019-04-14T09:30:03.442Z,7.20
2019-04-14T09:32:06.998Z,7.20
2019-04-14T09:34:08.720Z,7.30
2019-04-14T09:36:10.575Z,7.30
2019-04-14T09:38:12.689Z,7.30
2019-04-14T09:40:14.461Z,7.30
2019-04-14T09:42:16.332Z,7.20
2019-04-14T09:44:18.153Z,7.20
2019-04-14T09:46:19.865Z,7.20
2019-04-14T09:48:21.689Z,7.20
2019-04-14T09:50:23.421Z,7.30
2019-04-14T09:52:25.146Z,7.20
2019-04-14T09:54:26.853Z,7.10
2019-04-14T09:56:28.725Z,7.00
2019-04-14T09:58:30.422Z,7.00
2019-04-14T10:00:34.282Z,6.90
2019-04-14T10:02:36.193Z,6.90
2019-04-14T10:04:41.370Z,6.90
2019-04-14T10:06:43.112Z,6.90
2019-04-14T10:08:44.946Z,7.00
2019-04-14T10:10:46.948Z,7.10
2019-04-14T10:12:48.775Z,7.10
2019-04-14T10:14:50.689Z,7.10
2019-04-14T10:16:52.528Z,7.10
2019-04-14T10:18:54.269Z,7.20
2019-04-14T10:20:57.131Z,7.10
2019-04-14T10:22:58.877Z,7.10
2019-04-14T10:25:00.730Z,7.10
2019-04-14T10:27:03.036Z,7.20
2019-04-14T10:29:05.070Z,7.30
2019-04-14T10:31:06.808Z,7.40
2019-04-14T10:33:08.545Z,7.60
2019-04-14T10:35:10.522Z,7.70
2019-04-14T10:37:12.479Z,7.90
2019-04-14T10:39:14.301Z,8.10
2019-04-14T10:41:16.427Z,8.10
2019-04-14T10:43:18.484Z,7.80
2019-04-14T10:45:20.466Z,7.50
2019-04-14T10:47:22.494Z,7.30
2019-04-14T10:49:24.532Z,7.10
2019-04-14T10:51:30.378Z,7.10
2019-04-14T10:53:30.146Z,7.20
2019-04-14T10:55:31.865Z,7.20
2019-04-14T10:57:34.356Z,7.20
2019-04-14T10:59:36.545Z,7.20
2019-04-14T11:01:40.553Z,7.30
2019-04-14T11:03:42.308Z,7.40
2019-04-14T11:05:49.526Z,7.50
2019-04-14T11:07:51.254Z,7.50
2019-04-14T11:09:53.986Z,7.50
2019-04-14T11:11:56.111Z,7.50
2019-04-14T11:13:58.127Z,7.50
2019-04-14T11:16:00.174Z,7.50
2019-04-14T11:18:02.085Z,7.50
2019-04-14T11:20:04.963Z,7.50
2019-04-14T11:22:08.716Z,7.50
2019-04-14T11:24:10.609Z,7.40
2019-04-14T11:26:12.534Z,7.40
2019-04-14T11:28:14.337Z,7.40
2019-04-14T11:30:20.561Z,7.30
2019-04-14T11:32:42.954Z,7.30
2019-04-14T11:35:10.450Z,7.40
2019-04-14T11:37:34.944Z,7.40
2019-04-14T11:39:36.825Z,7.30
2019-04-14T11:41:38.902Z,7.30
2019-04-14T11:43:40.960Z,7.30
2019-04-14T11:45:42.829Z,7.10
2019-04-14T11:47:44.646Z,7.20
2019-04-14T11:49:46.875Z,7.20
2019-04-14T11:51:55.181Z,7.20
2019-04-14T11:53:55.664Z,7.10
2019-04-14T11:55:57.479Z,7.00
2019-04-14T11:57:59.214Z,7.00
2019-04-14T12:00:23.555Z,6.90
2019-04-14T12:02:43.314Z,6.90
2019-04-14T12:04:51.646Z,7.00
2019-04-14T12:07:16.378Z,7.10
2019-04-14T12:09:27.651Z,7.20
2019-04-14T12:11:32.810Z,7.20
2019-04-14T12:13:34.648Z,7.10
2019-04-14T12:15:36.585Z,7.10
2019-04-14T12:17:38.870Z,7.20
2019-04-14T12:19:41.037Z,7.40
2019-04-14T12:21:42.957Z,7.30
2019-04-14T12:23:44.786Z,7.40
2019-04-14T12:25:47.023Z,7.40
2019-04-14T12:27:48.989Z,7.40
2019-04-14T12:29:50.743Z,7.60
2019-04-14T12:31:53.123Z,7.70
2019-04-14T12:33:55.082Z,7.80
2019-04-14T12:35:56.908Z,7.70
2019-04-14T12:37:58.897Z,7.60
2019-04-14T12:40:04.810Z,7.50
2019-04-14T12:42:24.986Z,7.50
2019-04-14T12:44:46.536Z,7.70
2019-04-14T12:47:11.149Z,7.70
2019-04-14T12:49:25.955Z,7.70
2019-04-14T12:51:32.805Z,7.60
2019-04-14T12:53:34.677Z,7.60
2019-04-14T12:55:36.797Z,7.70
2019-04-14T12:57:46.545Z,7.80
2019-04-14T12:59:48.273Z,7.80
2019-04-14T13:02:10.970Z,7.90
2019-04-14T13:04:12.333Z,7.90
2019-04-14T13:06:17.191Z,7.80
2019-04-14T13:08:18.939Z,7.90
2019-04-14T13:10:20.657Z,7.90
2019-04-14T13:12:22.497Z,7.90
2019-04-14T13:14:24.196Z,7.80
2019-04-14T13:16:25.905Z,7.80
2019-04-14T13:18:27.632Z,7.70
2019-04-14T13:20:29.333Z,7.60
2019-04-14T13:22:34.250Z,7.60
2019-04-14T13:24:35.125Z,7.50
2019-04-14T13:26:36.837Z,7.50
2019-04-14T13:28:38.542Z,7.50
2019-04-14T13:30:42.665Z,7.40
2019-04-14T13:32:44.369Z,7.40
2019-04-14T13:34:46.068Z,7.40
2019-04-14T13:36:47.809Z,7.40
2019-04-14T13:38:51.948Z,7.30
2019-04-14T13:40:53.748Z,7.40
2019-04-14T13:42:55.466Z,7.30
2019-04-14T13:44:57.157Z,7.30
2019-04-14T13:46:58.874Z,7.30
2019-04-14T13:49:00.600Z,7.40
2019-04-14T13:51:02.410Z,7.50
2019-04-14T13:53:04.097Z,7.60
2019-04-14T13:55:06.209Z,7.70
2019-04-14T13:57:07.905Z,7.80
2019-04-14T13:59:09.741Z,7.80
2019-04-14T14:01:11.438Z,7.70
2019-04-14T14:03:13.190Z,7.70
2019-04-14T14:05:14.985Z,7.70
2019-04-14T14:07:16.782Z,7.70
2019-04-14T14:09:18.837Z,7.70
2019-04-14T14:11:47.433Z,7.70
2019-04-14T14:13:54.906Z,7.60
2019-04-14T14:16:16.284Z,7.60
2019-04-14T14:18:32.345Z,7.70
2019-04-14T14:20:50.245Z,7.80
2019-04-14T14:23:04.288Z,7.70
2019-04-14T14:25:12.125Z,7.70
2019-04-14T14:27:14.149Z,7.80
2019-04-14T14:29:15.900Z,7.80
2019-04-14T14:31:18.836Z,7.80
2019-04-14T14:33:20.542Z,7.80
2019-04-14T14:35:22.245Z,7.80
2019-04-14T14:37:24.172Z,7.80
2019-04-14T14:39:25.878Z,7.80
2019-04-14T14:41:27.569Z,7.80
2019-04-14T14:43:29.283Z,7.80
2019-04-14T14:46:03.022Z,7.80
2019-04-14T14:48:16.225Z,7.80
2019-04-14T14:50:22.015Z,7.70
2019-04-14T14:52:23.713Z,7.70
2019-04-14T14:54:25.537Z,7.70
2019-04-14T14:56:27.471Z,7.70
2019-04-14T14:58:29.163Z,7.70
2019-04-14T15:00:34.220Z,7.70
2019-04-14T15:02:35.937Z,7.80
2019-04-14T15:04:37.764Z,7.80
2019-04-14T15:06:39.545Z,7.80
2019-04-14T15:08:41.382Z,7.80
2019-04-14T15:10:43.085Z,7.80
2019-04-14T15:12:44.793Z,7.80
2019-04-14T15:14:46.504Z,7.80
2019-04-14T15:16:48.325Z,7.80
2019-04-14T15:18:50.137Z,7.90
2019-04-14T15:20:51.820Z,7.90
2019-04-14T15:22:53.657Z,7.80
2019-04-14T15:24:55.364Z,7.90
2019-04-14T15:26:57.174Z,7.80
2019-04-14T15:28:58.898Z,7.80
2019-04-14T15:31:00.594Z,7.80
2019-04-14T15:33:02.789Z,7.80
2019-04-14T15:35:04.715Z,7.80
2019-04-14T15:37:06.416Z,7.80
2019-04-14T15:39:08.667Z,7.80
2019-04-14T15:41:10.373Z,7.90
2019-04-14T15:43:12.072Z,7.80
2019-04-14T15:45:14.271Z,7.80
2019-04-14T15:47:17.156Z,7.90
2019-04-14T15:49:18.950Z,7.80
2019-04-14T15:51:20.650Z,7.70
2019-04-14T15:53:22.352Z,7.80
2019-04-14T15:55:24.277Z,7.80
2019-04-14T15:57:40.133Z,7.90
2019-04-14T15:59:53.949Z,7.90
2019-04-14T16:02:21.077Z,7.90
2019-04-14T16:04:46.841Z,7.90
2019-04-14T16:07:03.320Z,7.90
2019-04-14T16:09:12.245Z,7.80
2019-04-14T16:11:36.245Z,7.80
2019-04-14T16:14:13.069Z,7.90
2019-04-14T16:16:40.764Z,7.80
2019-04-14T16:18:45.077Z,7.80
2019-04-14T16:20:46.819Z,7.80
2019-04-14T16:22:48.657Z,7.80
2019-04-14T16:24:50.549Z,7.70
2019-04-14T16:27:10.740Z,7.70
2019-04-14T16:29:18.845Z,7.70
2019-04-14T16:31:46.281Z,7.60
2019-04-14T16:34:10.875Z,7.60
2019-04-14T16:36:12.568Z,7.60
2019-04-14T16:38:14.278Z,7.60
2019-04-14T16:40:15.981Z,7.50
2019-04-14T16:42:17.689Z,7.50
2019-04-14T16:44:19.406Z,7.60
2019-04-14T16:46:21.138Z,7.60
2019-04-14T16:48:22.853Z,7.50
2019-04-14T16:50:24.570Z,7.60
2019-04-14T16:52:30.641Z,7.50
2019-04-14T16:54:47.656Z,7.50
2019-04-14T16:57:20.945Z,7.40
2019-04-14T16:59:22.644Z,7.40
2019-04-14T17:01:29.682Z,7.40
2019-04-14T17:03:31.392Z,7.30
2019-04-14T17:05:33.079Z,7.30
2019-04-14T17:07:34.802Z,7.30
2019-04-14T17:09:36.497Z,7.30
2019-04-14T17:11:38.213Z,7.30
2019-04-14T17:13:42.604Z,7.20
2019-04-14T17:16:19.131Z,7.20
2019-04-14T17:18:38.689Z,7.10
2019-04-14T17:21:11.971Z,7.10
2019-04-14T17:23:39.001Z,7.10
2019-04-14T17:26:00.390Z,7.20
2019-04-14T17:28:12.456Z,7.20
2019-04-14T17:30:24.650Z,7.20
2019-04-14T17:32:31.944Z,7.20
2019-04-14T17:34:48.160Z,7.20
2019-04-14T17:37:12.195Z,7.30
2019-04-14T17:39:26.184Z,7.10
2019-04-14T17:41:36.601Z,7.10
2019-04-14T17:43:49.216Z,7.10
2019-04-14T17:46:18.934Z,7.10
2019-04-14T17:48:31.648Z,7.10
2019-04-14T17:51:03.479Z,7.10
2019-04-14T17:53:17.149Z,7.10
2019-04-14T17:55:29.612Z,7.00
2019-04-14T17:57:44.380Z,7.00
2019-04-14T17:59:58.540Z,7.00
2019-04-14T18:02:11.769Z,7.00
2019-04-14T18:04:22.122Z,7.00
2019-04-14T18:06:31.965Z,7.10
2019-04-14T18:08:51.816Z,7.00
2019-04-14T18:11:02.212Z,7.00
2019-04-14T18:13:12.447Z,7.00
2019-04-14T18:15:19.557Z,7.00
2019-04-14T18:17:42.080Z,7.00
2019-04-14T18:19:50.881Z,7.00
2019-04-14T18:21:52.727Z,7.00
2019-04-14T18:23:54.425Z,6.90
2019-04-14T18:25:56.377Z,6.90
2019-04-14T18:28:13.769Z,7.00
2019-04-14T18:30:20.685Z,7.00
2019-04-14T18:32:27.105Z,6.90
2019-04-14T18:34:51.798Z,7.00
2019-04-14T18:37:11.817Z,7.00
2019-04-14T18:39:33.188Z,7.00
2019-04-14T18:41:55.565Z,6.90
2019-04-14T18:44:19.822Z,6.90
2019-04-14T18:46:34.869Z,6.90
2019-04-14T18:48:53.121Z,7.00
2019-04-14T18:51:13.300Z,7.00
2019-04-14T18:53:21.505Z,7.00
2019-04-14T18:55:48.537Z,7.00
2019-04-14T18:58:10.080Z,6.90
2019-04-14T19:00:31.889Z,6.90
2019-04-14T19:02:33.613Z,7.00
2019-04-14T19:04:35.309Z,7.00
2019-04-14T19:06:37.060Z,7.00
2019-04-14T19:08:39.034Z,7.00
2019-04-14T19:10:42.975Z,7.00
2019-04-14T19:12:50.593Z,7.00
2019-04-14T19:14:58.600Z,7.00
2019-04-14T19:17:19.204Z,7.00
2019-04-14T19:19:21.145Z,7.00
2019-04-14T19:21:25.784Z,7.00
2019-04-14T19:23:27.493Z,7.10
2019-04-14T19:25:29.310Z,7.20
2019-04-14T19:27:31.003Z,7.10
2019-04-14T19:29:32.692Z,7.10
2019-04-14T19:31:34.510Z,7.00
2019-04-14T19:33:36.188Z,7.10
2019-04-14T19:35:37.889Z,7.10
2019-04-14T19:37:39.589Z,7.10
2019-04-14T19:39:41.305Z,7.10
2019-04-14T19:41:43.044Z,7.00
2019-04-14T19:43:44.737Z,7.00
2019-04-14T19:45:46.428Z,7.00
2019-04-14T19:47:48.125Z,7.00
2019-04-14T19:49:50.215Z,7.10
2019-04-14T19:51:51.906Z,7.10
2019-04-14T19:53:53.704Z,7.10
2019-04-14T19:55:55.425Z,7.10
2019-04-14T19:57:57.116Z,7.10
2019-04-14T19:59:58.813Z,7.20
2019-04-14T20:02:00.520Z,7.20
2019-04-14T20:04:02.244Z,7.10
2019-04-14T20:06:04.820Z,7.10
2019-04-14T20:08:06.746Z,7.10
2019-04-14T20:10:09.402Z,7.20
2019-04-14T20:12:11.401Z,7.20
2019-04-14T20:14:13.122Z,7.20
2019-04-14T20:16:46.697Z,7.10
2019-04-14T20:19:23.069Z,7.10
2019-04-14T20:21:59.309Z,7.20
2019-04-14T20:24:06.518Z,7.20
2019-04-14T20:26:28.159Z,7.20
2019-04-14T20:28:34.618Z,7.20
2019-04-14T20:30:40.148Z,7.20
2019-04-14T20:32:42.468Z,7.20
2019-04-14T20:34:44.276Z,7.20
2019-04-14T20:36:46.281Z,7.20
2019-04-14T20:38:47.976Z,7.10
2019-04-14T20:40:49.826Z,7.20
2019-04-14T20:42:51.632Z,7.20
2019-04-14T20:44:53.541Z,7.30
2019-04-14T20:46:55.501Z,7.20
2019-04-14T20:48:57.201Z,7.20
2019-04-14T20:50:58.916Z,7.20
2019-04-14T20:53:01.626Z,7.20
2019-04-14T20:55:04.676Z,7.20
2019-04-14T20:57:06.475Z,7.10
2019-04-14T20:59:08.449Z,7.10
2019-04-14T21:01:12.265Z,7.20
2019-04-14T21:03:31.216Z,7.20
2019-04-14T21:05:47.381Z,7.20
2019-04-14T21:08:07.502Z,7.10
2019-04-14T21:10:22.705Z,7.10
2019-04-14T21:12:42.901Z,7.10
2019-04-14T21:15:07.141Z,7.10
2019-04-14T21:17:21.000Z,7.10
2019-04-14T21:19:38.519Z,7.10
2019-04-14T21:22:15.246Z,7.10
2019-04-14T21:24:39.701Z,7.10
2019-04-14T21:26:46.244Z,7.00
2019-04-14T21:28:53.056Z,7.00
2019-04-14T21:31:02.349Z,7.10
2019-04-14T21:33:12.503Z,7.10
2019-04-14T21:35:29.467Z,7.00
2019-04-14T21:37:43.253Z,7.00
2019-04-14T21:40:07.497Z,7.00
2019-04-14T21:42:09.592Z,7.00
2019-04-14T21:44:11.289Z,6.90
2019-04-14T21:46:15.741Z,6.90
2019-04-14T21:48:17.447Z,6.90
2019-04-14T21:50:19.284Z,6.90
2019-04-14T21:52:40.831Z,6.90
2019-04-14T21:54:43.522Z,6.90
2019-04-14T21:56:49.274Z,6.90
2019-04-14T21:59:03.068Z,6.90
2019-04-14T22:01:49.544Z,6.80
2019-04-14T22:04:03.228Z,6.80
2019-04-14T22:06:17.145Z,6.80
2019-04-14T22:08:25.255Z,6.80
2019-04-14T22:10:33.371Z,6.90
2019-04-14T22:12:35.569Z,6.90
2019-04-14T22:14:37.413Z,6.90
2019-04-14T22:16:39.110Z,6.80
2019-04-14T22:18:41.008Z,6.80
2019-04-14T22:20:42.842Z,6.80
2019-04-14T22:22:44.633Z,6.80
2019-04-14T22:24:46.336Z,6.90
2019-04-14T22:26:48.041Z,6.80
2019-04-14T22:28:49.729Z,6.80
2019-04-14T22:30:51.420Z,6.90
2019-04-14T22:32:53.146Z,6.90
2019-04-14T22:34:54.836Z,6.80
2019-04-14T22:36:56.533Z,6.80
2019-04-14T22:38:58.241Z,6.70
2019-04-14T22:40:59.937Z,6.80
2019-04-14T22:43:02.037Z,6.80
2019-04-14T22:45:04.501Z,6.90
2019-04-14T22:47:06.581Z,6.90
2019-04-14T22:49:08.304Z,6.90
2019-04-14T22:51:10.017Z,6.90
2019-04-14T22:53:11.697Z,6.90
2019-04-14T22:55:13.500Z,6.80
2019-04-14T22:57:15.204Z,6.80
2019-04-14T22:59:16.889Z,6.80
2019-04-14T23:01:22.259Z,6.70
2019-04-14T23:03:35.182Z,6.70
2019-04-14T23:05:44.908Z,6.60
2019-04-14T23:08:08.919Z,6.70
2019-04-14T23:10:32.415Z,6.70
2019-04-14T23:12:56.792Z,6.70
2019-04-14T23:15:10.200Z,6.70
2019-04-14T23:17:32.638Z,6.70
2019-04-14T23:19:47.702Z,6.70
2019-04-14T23:21:58.090Z,6.80
2019-04-14T23:28:59.857Z,6.60
2019-04-14T23:31:01.849Z,6.60
2019-04-14T23:33:03.719Z,6.70
2019-04-14T23:35:05.547Z,6.60
2019-04-14T23:37:07.283Z,6.60
2019-04-14T23:39:11.679Z,6.70
2019-04-14T23:41:13.476Z,6.60
2019-04-14T23:43:15.267Z,6.60
2019-04-14T23:45:16.960Z,6.60
2019-04-14T23:47:18.685Z,6.70
2019-04-14T23:49:20.403Z,6.70
2019-04-14T23:51:22.182Z,6.80
2019-04-14T23:53:23.865Z,6.70
2019-04-14T23:55:25.564Z,6.70
2019-04-14T23:57:27.273Z,6.70
2019-04-14T23:59:28.984Z,6.70
